Terminal Aerodrome Forecast
Issued by NWS

Home | Current Version | Previous Version | Text Only | Print | Product List | Glossary On
Versions: 1 2 3 4 5 6 7 8 9 10 11 12 13 14 15 16 17 18 19 20 21 22 23 24 25 26 27 28 29 30 31 32 33 34 35 36 37 38 39 40 41 42 43 44 45 46 47 48 49 50
000
FTUS41 KRNK 292126 AAC
TAFLWB
TAF AMD
KLWB 292126Z 2921/3018 VRB03KT P6SM SCT025 OVC100
     FM292300 00000KT P6SM VCSH BKN040
     FM300400 00000KT 4SM BR SCT100 BKN250
     FM301000 00000KT 1/4SM FG OVC001
     FM301300 26005KT P6SM SCT012 BKN025=

USA.gov is the U.S. government's official web portal to all federal, state and local government web resources and services.